Time;durP1;ratioP1;P1;durP2;ratioP2;P2;SDS_P1;SDS_P2;PMS_P1;PMS_P2;Temp;Humidity;BMP_temperature;BMP_pressure;BME280_temperature;BME280_humidity;BME280_pressure;Samples;Min_cycle;Max_cycle;Signal;HPM_P1;HPM_P2
2022/04/20 00:00:41;;;;;;;2.43;2.20;;;9.60;75.50;;;;;;5049460;28;20037;-47
2022/04/20 00:03:07;;;;;;;7.05;2.88;;;9.60;76.20;;;;;;5034867;28;20033;-48
2022/04/20 00:05:33;;;;;;;5.10;2.22;;;9.60;75.50;;;;;;5050354;28;20047;-47
2022/04/20 00:08:03;;;;;;;8.20;2.78;;;9.50;74.80;;;;;;5036140;28;20112;-49
2022/04/20 00:10:29;;;;;;;5.32;2.60;;;9.50;76.30;;;;;;5031956;28;20053;-47
2022/04/20 00:12:55;;;;;;;;;;;9.40;75.00;;;;;;5033073;28;20080;-47
2022/04/20 00:15:21;;;;;;;4.95;2.55;;;9.40;75.70;;;;;;5030797;28;19921;-47
2022/04/20 00:17:47;;;;;;;4.13;2.42;;;9.30;76.20;;;;;;5031112;28;20033;-47
2022/04/20 00:20:13;;;;;;;4.67;2.47;;;9.30;76.00;;;;;;5033311;28;20068;-47
2022/04/20 00:22:38;;;;;;;4.63;2.42;;;9.30;76.90;;;;;;5048313;28;20040;-47
2022/04/20 00:25:04;;;;;;;4.87;2.80;;;9.20;77.20;;;;;;5048822;28;20077;-47
2022/04/20 00:27:37;;;;;;;7.60;3.38;;;9.20;77.80;;;;;;5048048;28;20098;-48
2022/04/20 00:30:12;;;;;;;6.55;2.90;;;9.20;78.00;;;;;;5043378;28;20051;-47
2022/04/20 00:32:38;;;;;;;9.25;3.67;;;9.20;77.10;;;;;;5030508;28;20498;-47
2022/04/20 00:35:05;;;;;;;3.50;3.20;;;9.20;77.60;;;;;;5042539;28;20055;-48
2022/04/20 00:37:32;;;;;;;7.18;3.33;;;9.10;77.10;;;;;;5040344;28;20038;-47
2022/04/20 00:39:57;;;;;;;4.10;3.05;;;9.10;77.80;;;;;;5035714;28;20052;-47
2022/04/20 00:42:23;;;;;;;7.80;3.13;;;9.00;78.10;;;;;;5031846;28;20040;-47
2022/04/20 00:44:50;;;;;;;3.45;2.85;;;9.00;78.40;;;;;;5031154;28;20061;-50
2022/04/20 00:47:17;;;;;;;7.22;2.75;;;9.00;78.10;;;;;;5041812;28;20067;-47
2022/04/20 00:49:45;;;;;;;7.50;3.00;;;8.90;77.70;;;;;;5038792;28;20041;-48
2022/04/20 00:52:11;;;;;;;8.10;3.53;;;8.90;79.00;;;;;;5034373;28;20069;-47
2022/04/20 00:54:36;;;;;;;4.97;3.43;;;8.90;78.60;;;;;;5048749;28;20068;-47
2022/04/20 00:57:03;;;;;;;5.17;2.87;;;8.80;79.40;;;;;;5049172;28;20044;-47
2022/04/20 00:59:30;;;;;;;8.88;3.65;;;8.80;78.90;;;;;;5044871;28;20810;-47
2022/04/20 01:01:55;;;;;;;4.60;3.45;;;8.80;78.80;;;;;;5048246;28;20086;-48
2022/04/20 01:04:21;;;;;;;8.50;3.77;;;8.80;79.10;;;;;;5048540;28;20582;-51
2022/04/20 01:06:49;;;;;;;3.90;3.53;;;8.80;79.40;;;;;;5046393;28;20043;-47
2022/04/20 01:09:15;;;;;;;6.60;3.78;;;8.80;79.40;;;;;;5039105;28;20045;-47
2022/04/20 01:11:41;;;;;;;11.18;4.43;;;8.70;79.30;;;;;;5032078;28;20072;-48
2022/04/20 01:14:08;;;;;;;4.43;3.05;;;8.70;79.60;;;;;;5030384;28;20049;-47
2022/04/20 01:16:33;;;;;;;5.00;3.78;;;8.70;80.10;;;;;;5031558;28;20037;-48
2022/04/20 01:19:01;;;;;;;8.20;4.17;;;8.70;80.30;;;;;;5030215;28;20037;-48
2022/04/20 01:21:27;;;;;;;6.00;3.78;;;8.70;80.70;;;;;;5040204;28;20049;-47
2022/04/20 01:23:53;;;;;;;6.70;3.42;;;8.70;80.10;;;;;;5046872;28;20040;-48
2022/04/20 01:26:19;;;;;;;4.60;2.90;;;8.70;80.10;;;;;;5030986;28;20041;-47
2022/04/20 01:28:46;;;;;;;6.57;4.50;;;8.70;80.90;;;;;;5030734;28;20048;-47
2022/04/20 01:31:16;;;;;;;4.97;4.10;;;8.70;81.60;;;;;;5029859;28;20503;-47
2022/04/20 01:33:43;;;;;;;4.93;4.32;;;8.70;80.10;;;;;;5042650;28;20449;-48
2022/04/20 01:36:10;;;;;;;6.20;3.97;;;8.60;81.00;;;;;;5030435;28;20521;-48
2022/04/20 01:38:36;;;;;;;4.55;3.97;;;8.60;80.90;;;;;;5031919;28;20041;-47
2022/04/20 01:41:02;;;;;;;9.07;4.20;;;8.60;80.70;;;;;;5045111;28;20037;-47
2022/04/20 01:43:27;;;;;;;5.10;4.10;;;8.50;81.20;;;;;;5037440;28;20055;-48
2022/04/20 01:45:53;;;;;;;5.60;3.42;;;8.50;81.00;;;;;;5037561;28;20038;-47
2022/04/20 01:48:18;;;;;;;5.67;3.60;;;8.50;81.30;;;;;;5030349;28;20042;-47
2022/04/20 01:53:30;;;;;;;4.10;3.65;;;8.50;82.60;;;;;;5029691;28;20136;-47
2022/04/20 01:55:55;;;;;;;20.80;4.35;;;8.40;82.00;;;;;;5042916;28;20045;-48
2022/04/20 01:58:21;;;;;;;10.90;4.95;;;8.40;82.10;;;;;;5045381;28;20051;-47
2022/04/20 02:00:47;;;;;;;6.40;4.40;;;8.40;82.00;;;;;;5047500;28;20616;-47
2022/04/20 02:03:13;;;;;;;5.83;3.63;;;8.40;82.30;;;;;;5029093;28;20429;-47
2022/04/20 02:05:39;;;;;;;7.30;3.58;;;8.40;82.30;;;;;;5029485;28;20100;-48
2022/04/20 02:08:05;;;;;;;8.93;3.70;;;8.40;82.50;;;;;;5030382;28;20045;-48
2022/04/20 02:10:30;;;;;;;8.40;4.25;;;8.40;82.40;;;;;;5047610;28;20483;-47
2022/04/20 02:12:56;;;;;;;7.80;4.10;;;8.30;82.40;;;;;;5044685;28;20048;-47
2022/04/20 02:15:21;;;;;;;5.70;4.20;;;8.30;82.80;;;;;;5035186;28;20044;-47
2022/04/20 02:17:48;;;;;;;7.77;4.80;;;8.30;82.60;;;;;;5060567;28;20053;-47
2022/04/20 02:20:14;;;;;;;11.10;5.30;;;8.30;83.20;;;;;;5031904;28;20057;-48
2022/04/20 02:22:40;;;;;;;6.57;4.45;;;8.20;83.20;;;;;;5038889;28;20062;-47
2022/04/20 02:25:06;;;;;;;5.32;4.20;;;8.20;83.20;;;;;;5051298;28;20047;-47
2022/04/20 02:27:31;;;;;;;;;;;8.20;82.90;;;;;;5052351;28;20088;-47
2022/04/20 02:29:57;;;;;;;8.48;4.25;;;8.10;83.30;;;;;;5050717;28;19920;-48
2022/04/20 02:32:23;;;;;;;9.47;4.97;;;8.10;82.50;;;;;;5051757;28;20048;-48
2022/04/20 02:34:48;;;;;;;5.45;4.15;;;8.10;83.50;;;;;;5048089;28;20148;-49
2022/04/20 02:37:15;;;;;;;6.88;4.30;;;8.00;83.40;;;;;;5042546;28;20057;-47
2022/04/20 02:39:42;;;;;;;;;;;8.00;83.30;;;;;;5052223;28;20128;-48
2022/04/20 02:42:08;;;;;;;5.60;3.72;;;7.90;84.50;;;;;;5052806;28;19916;-47
2022/04/20 02:44:36;;;;;;;7.47;4.63;;;7.90;84.50;;;;;;5051823;28;20041;-47
2022/04/20 02:47:02;;;;;;;8.68;4.45;;;7.90;83.80;;;;;;5048848;28;20410;-47
2022/04/20 02:49:28;;;;;;;6.47;5.07;;;7.80;83.70;;;;;;5045213;28;20033;-47
2022/04/20 02:51:53;;;;;;;6.10;4.75;;;7.80;85.40;;;;;;5032358;28;20045;-47
2022/04/20 02:54:19;;;;;;;6.40;4.90;;;7.80;85.00;;;;;;5051974;28;20154;-48
2022/04/20 02:56:45;;;;;;;5.17;4.57;;;7.80;85.30;;;;;;5049126;28;20088;-47
2022/04/20 02:59:10;;;;;;;7.10;4.33;;;7.80;84.60;;;;;;5050010;28;20048;-47
2022/04/20 03:01:36;;;;;;;10.77;4.67;;;7.70;85.00;;;;;;5050148;28;20041;-47
2022/04/20 03:04:01;;;;;;;5.73;5.00;;;7.70;85.50;;;;;;5048982;28;20505;-47
2022/04/20 03:06:28;;;;;;;8.17;4.87;;;7.70;85.70;;;;;;5030541;28;20041;-49
2022/04/20 03:08:54;;;;;;;6.45;4.78;;;7.70;86.60;;;;;;5034741;28;20041;-46
2022/04/20 03:11:21;;;;;;;7.03;5.97;;;7.70;86.10;;;;;;5032498;28;20076;-47
2022/04/20 03:13:47;;;;;;;5.53;3.92;;;7.70;86.30;;;;;;5035393;28;20040;-47
2022/04/20 03:16:14;;;;;;;9.02;4.63;;;7.70;86.10;;;;;;5032762;28;20493;-47
2022/04/20 03:18:39;;;;;;;8.05;4.45;;;7.70;86.50;;;;;;5033888;28;20516;-47
2022/04/20 03:21:05;;;;;;;9.77;4.93;;;7.70;85.90;;;;;;5032693;28;20037;-47
2022/04/20 03:23:30;;;;;;;8.70;5.03;;;7.70;86.30;;;;;;5051339;28;20047;-47
2022/04/20 03:25:56;;;;;;;16.47;4.67;;;7.60;86.30;;;;;;5050323;28;20055;-47
2022/04/20 03:28:22;;;;;;;6.90;5.00;;;7.60;86.90;;;;;;5046498;28;20033;-47
2022/04/20 03:30:48;;;;;;;5.78;4.40;;;7.60;86.30;;;;;;5032946;28;20043;-48
2022/04/20 03:33:14;;;;;;;6.65;4.78;;;7.60;85.90;;;;;;5031642;28;20079;-47
2022/04/20 03:35:40;;;;;;;7.45;4.22;;;7.60;86.90;;;;;;5037439;28;20048;-47
2022/04/20 03:38:07;;;;;;;5.78;4.80;;;7.50;86.50;;;;;;5031882;28;20121;-47
2022/04/20 03:40:33;;;;;;;10.00;4.80;;;7.50;87.80;;;;;;5034327;28;20037;-47
2022/04/20 03:42:58;;;;;;;6.85;4.40;;;7.50;86.60;;;;;;5014153;28;20107;-48
2022/04/20 03:45:24;;;;;;;5.65;4.28;;;7.50;86.60;;;;;;5033080;28;20080;-48
2022/04/20 03:47:50;;;;;;;8.43;4.72;;;7.40;87.20;;;;;;5050272;28;20465;-49
2022/04/20 03:50:15;;;;;;;7.37;4.67;;;7.40;87.80;;;;;;5043391;28;20033;-47
2022/04/20 03:52:41;;;;;;;7.20;4.63;;;7.40;87.20;;;;;;5031585;28;20034;-47
2022/04/20 03:55:07;;;;;;;6.90;5.03;;;7.40;87.00;;;;;;5031387;28;20361;-48
2022/04/20 03:57:33;;;;;;;6.38;5.05;;;7.30;87.40;;;;;;5046664;28;20101;-47
2022/04/20 03:59:58;;;;;;;6.10;4.57;;;7.30;87.80;;;;;;5048847;28;20526;-47
2022/04/20 04:02:24;;;;;;;7.13;5.10;;;7.30;87.10;;;;;;5047782;28;20041;-47
2022/04/20 04:04:50;;;;;;;7.07;5.07;;;7.20;87.50;;;;;;5047394;28;20052;-47
2022/04/20 04:07:16;;;;;;;9.52;5.13;;;7.20;87.70;;;;;;5042775;28;20448;-50
2022/04/20 04:09:41;;;;;;;7.72;5.35;;;7.20;87.90;;;;;;5031203;28;20041;-48
2022/04/20 04:12:08;;;;;;;4.53;4.10;;;7.10;87.80;;;;;;5033517;28;20148;-47
2022/04/20 04:14:38;;;;;;;5.90;4.57;;;7.20;88.40;;;;;;5031661;28;20048;-48
2022/04/20 04:17:05;;;;;;;9.95;5.22;;;7.10;88.80;;;;;;5045142;28;20506;-48
2022/04/20 04:19:30;;;;;;;7.28;4.63;;;7.10;88.30;;;;;;5049312;28;20398;-47
2022/04/20 04:21:56;;;;;;;6.18;4.50;;;7.10;87.90;;;;;;5046954;28;20041;-47
2022/04/20 04:24:34;;;;;;;6.18;4.78;;;7.10;88.70;;;;;;5050045;28;20044;-47
2022/04/20 04:27:00;;;;;;;5.70;4.40;;;7.00;88.20;;;;;;5049561;28;20075;-47
2022/04/20 04:29:27;;;;;;;8.05;4.50;;;7.00;88.90;;;;;;5032022;28;20546;-47
2022/04/20 04:31:52;;;;;;;11.80;5.38;;;7.00;88.60;;;;;;5048260;28;20045;-47
2022/04/20 04:34:18;;;;;;;5.20;4.70;;;7.00;89.50;;;;;;5049462;28;20502;-47
2022/04/20 04:36:44;;;;;;;7.32;4.53;;;7.00;90.00;;;;;;5044046;28;20049;-47
2022/04/20 04:39:10;;;;;;;9.10;4.85;;;7.00;90.00;;;;;;5038763;28;20045;-46
2022/04/20 04:41:35;;;;;;;7.90;5.10;;;7.00;90.00;;;;;;5031272;28;20395;-46
2022/04/20 04:44:01;;;;;;;7.30;5.37;;;7.00;89.20;;;;;;5048350;28;20120;-46
2022/04/20 04:49:11;;;;;;;10.07;5.35;;;7.00;90.10;;;;;;5045462;28;20040;-46
2022/04/20 04:51:37;;;;;;;12.13;6.00;;;7.00;90.10;;;;;;5050285;28;20482;-47
2022/04/20 04:54:02;;;;;;;9.50;5.70;;;7.00;90.40;;;;;;5048083;28;20506;-47
2022/04/20 04:56:28;;;;;;;6.53;4.77;;;7.00;90.60;;;;;;5034854;28;20113;-47
2022/04/20 04:58:53;;;;;;;10.23;5.33;;;7.00;90.10;;;;;;5031111;28;20048;-47
2022/04/20 05:01:19;;;;;;;10.53;5.50;;;7.00;90.80;;;;;;5030396;28;20502;-48
2022/04/20 05:03:44;;;;;;;6.43;4.83;;;7.10;90.10;;;;;;5040797;28;20069;-46
2022/04/20 05:06:10;;;;;;;7.67;4.47;;;7.10;90.40;;;;;;5049389;28;20064;-47
2022/04/20 05:08:36;;;;;;;6.27;4.53;;;7.10;90.50;;;;;;5030038;28;20084;-48
2022/04/20 05:11:01;;;;;;;7.10;4.27;;;7.20;90.20;;;;;;5030132;28;20505;-47
2022/04/20 05:13:27;;;;;;;9.05;5.07;;;7.20;90.80;;;;;;5059312;28;20041;-47
2022/04/20 05:15:53;;;;;;;8.52;4.82;;;7.20;90.20;;;;;;5029585;28;20502;-47
2022/04/20 05:18:18;;;;;;;6.53;5.60;;;7.20;90.00;;;;;;5045072;28;20040;-47
2022/04/20 05:20:44;;;;;;;8.33;4.47;;;7.20;90.10;;;;;;5048375;28;20036;-48
2022/04/20 05:23:09;;;;;;;10.67;6.20;;;7.30;90.50;;;;;;5036788;28;20371;-47
2022/04/20 05:25:35;;;;;;;9.20;5.50;;;7.30;90.40;;;;;;5030082;28;20526;-47
2022/04/20 05:28:01;;;;;;;7.85;4.47;;;7.30;90.30;;;;;;5046847;28;20041;-46
2022/04/20 05:30:27;;;;;;;8.55;5.53;;;7.40;90.10;;;;;;5043088;28;20483;-47
2022/04/20 05:32:52;;;;;;;6.87;5.20;;;7.50;90.20;;;;;;5038550;28;20489;-47
2022/04/20 05:35:18;;;;;;;8.70;5.40;;;7.50;89.60;;;;;;5040206;28;20525;-48
2022/04/20 05:43:12;;;;;;;6.07;4.75;;;7.70;89.50;;;;;;5030597;28;20053;-47
2022/04/20 05:45:37;;;;;;;6.63;5.13;;;7.70;89.30;;;;;;5033138;28;20033;-47
2022/04/20 05:48:04;;;;;;;5.67;4.73;;;7.80;89.40;;;;;;5031983;28;20079;-47
2022/04/20 05:50:29;;;;;;;12.48;5.18;;;7.90;89.30;;;;;;5029978;28;20088;-48
2022/04/20 05:52:55;;;;;;;8.00;5.13;;;7.90;88.70;;;;;;5030066;28;20033;-47
2022/04/20 05:55:20;;;;;;;7.43;5.03;;;8.00;88.10;;;;;;5036849;28;20087;-47
2022/04/20 05:57:49;;;;;;;9.60;5.93;;;8.10;88.40;;;;;;5052091;28;20116;-48
2022/04/20 06:00:15;;;;;;;11.45;5.40;;;8.20;88.90;;;;;;5039063;28;20279;-47
2022/04/20 06:02:41;;;;;;;5.60;4.40;;;8.20;88.70;;;;;;5038708;28;20075;-47
2022/04/20 06:05:07;;;;;;;10.65;4.82;;;8.30;88.10;;;;;;5052689;28;20460;-48
2022/04/20 06:07:34;;;;;;;8.52;5.30;;;8.40;88.20;;;;;;5037087;28;20525;-47
2022/04/20 06:09:59;;;;;;;5.90;4.95;;;8.50;87.50;;;;;;5032549;28;20034;-47
2022/04/20 06:12:25;;;;;;;7.27;4.87;;;8.60;86.40;;;;;;5036762;28;20502;-47
2022/04/20 06:14:50;;;;;;;7.47;5.03;;;8.60;86.70;;;;;;5031912;28;20116;-49
2022/04/20 06:17:16;;;;;;;7.93;5.23;;;8.70;86.60;;;;;;5033943;28;20479;-47
2022/04/20 06:19:42;;;;;;;8.23;5.15;;;8.70;86.40;;;;;;5034582;28;20622;-47
2022/04/20 06:22:07;;;;;;;9.73;5.30;;;8.80;86.70;;;;;;5032797;28;20049;-47
2022/04/20 06:24:33;;;;;;;5.97;4.70;;;8.90;87.00;;;;;;5033628;28;20036;-47
2022/04/20 06:26:59;;;;;;;4.70;4.27;;;9.00;86.30;;;;;;5033630;28;20041;-48
2022/04/20 06:29:24;;;;;;;8.23;4.20;;;9.10;86.20;;;;;;5032323;28;20516;-47
2022/04/20 06:31:51;;;;;;;7.00;3.47;;;9.20;86.50;;;;;;5031984;28;20576;-49
2022/04/20 06:34:18;;;;;;;5.07;4.47;;;9.30;85.70;;;;;;5033464;28;20049;-47
2022/04/20 06:36:43;;;;;;;;;;;9.30;85.90;;;;;;5032707;28;20476;-50
2022/04/20 06:39:09;;;;;;;7.25;4.78;;;9.40;85.10;;;;;;5033108;28;19923;-47
2022/04/20 06:41:34;;;;;;;7.10;4.13;;;9.60;84.90;;;;;;5032895;28;20033;-47
2022/04/20 06:44:00;;;;;;;7.47;4.10;;;9.60;84.20;;;;;;5033291;28;20067;-48
2022/04/20 06:46:25;;;;;;;6.07;3.87;;;9.70;84.40;;;;;;5030853;28;20049;-47
2022/04/20 06:48:51;;;;;;;9.70;3.90;;;9.80;83.90;;;;;;5032763;28;20051;-48
2022/04/20 06:51:16;;;;;;;7.53;4.43;;;9.90;84.10;;;;;;5030941;28;20052;-47
2022/04/20 06:59:10;;;;;;;5.43;4.13;;;10.30;80.60;;;;;;5032649;28;20147;-47
2022/04/20 07:01:36;;;;;;;4.00;3.00;;;10.30;81.10;;;;;;5031970;28;20065;-47
2022/04/20 07:04:02;;;;;;;5.07;2.67;;;10.40;80.40;;;;;;5033065;28;20045;-47
2022/04/20 07:06:27;;;;;;;6.07;3.53;;;10.50;80.70;;;;;;5030179;28;20391;-47
2022/04/20 07:08:53;;;;;;;9.20;3.60;;;10.50;80.00;;;;;;5032365;28;20041;-48
2022/04/20 07:11:19;;;;;;;3.60;2.95;;;10.60;80.00;;;;;;5032298;28;20045;-48
2022/04/20 07:13:46;;;;;;;3.85;3.20;;;10.70;79.40;;;;;;5031194;28;20048;-48
2022/04/20 07:16:12;;;;;;;5.82;3.63;;;10.80;79.00;;;;;;5031438;28;20053;-47
2022/04/20 07:18:37;;;;;;;5.43;3.03;;;10.80;79.30;;;;;;5032119;28;20041;-50
2022/04/20 07:21:03;;;;;;;8.03;3.87;;;10.90;78.90;;;;;;5031168;28;20048;-47
2022/04/20 07:23:29;;;;;;;3.67;3.33;;;11.10;78.70;;;;;;5032165;28;20107;-48
2022/04/20 07:25:55;;;;;;;4.93;3.10;;;11.20;79.10;;;;;;5031748;28;20041;-47
2022/04/20 07:28:20;;;;;;;5.17;3.03;;;11.20;77.80;;;;;;5032042;28;20045;-47
2022/04/20 07:30:46;;;;;;;3.03;2.15;;;11.30;78.10;;;;;;5032053;28;20046;-47
2022/04/20 07:33:15;;;;;;;3.40;2.77;;;11.40;77.50;;;;;;5032234;28;20053;-47
2022/04/20 07:35:44;;;;;;;11.38;2.90;;;11.50;76.80;;;;;;5031655;28;20044;-48
2022/04/20 07:38:10;;;;;;;7.47;3.88;;;11.50;76.30;;;;;;5031704;28;20550;-48
2022/04/20 07:40:36;;;;;;;5.05;3.47;;;11.60;76.90;;;;;;5031164;28;20141;-47
2022/04/20 07:43:02;;;;;;;6.45;3.78;;;11.60;76.10;;;;;;5031673;28;20108;-47
2022/04/20 07:45:27;;;;;;;4.53;3.22;;;11.70;76.10;;;;;;5031273;28;20104;-48
2022/04/20 07:47:54;;;;;;;6.53;3.70;;;11.80;75.90;;;;;;5032040;28;20041;-47
2022/04/20 07:50:23;;;;;;;5.20;2.95;;;11.80;75.70;;;;;;5030876;28;20700;-48
2022/04/20 07:52:51;;;;;;;4.43;3.33;;;11.90;75.50;;;;;;5030595;28;20049;-47
2022/04/20 07:55:23;;;;;;;4.53;2.65;;;12.10;75.20;;;;;;5031605;28;20506;-47
2022/04/20 07:57:51;;;;;;;2.95;2.65;;;12.10;75.10;;;;;;5013380;28;20124;-48
2022/04/20 08:00:18;;;;;;;3.38;2.45;;;12.10;73.80;;;;;;5030865;28;20475;-48
2022/04/20 08:02:44;;;;;;;;;;;12.20;74.70;;;;;;5032283;28;20041;-48
2022/04/20 08:05:10;;;;;;;3.47;2.67;;;12.20;72.00;;;;;;5031391;28;20011;-47
2022/04/20 08:07:37;;;;;;;3.25;2.63;;;12.10;73.50;;;;;;5030579;28;20049;-48
2022/04/20 08:10:06;;;;;;;5.35;2.75;;;12.20;75.00;;;;;;5031156;28;20112;-49
2022/04/20 08:12:42;;;;;;;5.25;3.00;;;12.30;74.30;;;;;;5031361;28;20060;-48
2022/04/20 08:15:08;;;;;;;4.63;2.20;;;12.40;72.10;;;;;;5030855;28;20065;-48
2022/04/20 08:17:35;;;;;;;4.55;2.83;;;12.50;71.90;;;;;;5030368;28;20180;-48
2022/04/20 08:20:02;;;;;;;5.03;2.13;;;12.60;72.40;;;;;;5031024;28;20043;-47
2022/04/20 08:22:28;;;;;;;7.85;2.55;;;12.60;71.90;;;;;;5031097;28;20029;-48
2022/04/20 08:24:54;;;;;;;3.83;1.63;;;12.70;71.50;;;;;;5029193;28;20034;-47
2022/04/20 08:27:20;;;;;;;4.90;2.90;;;12.80;70.70;;;;;;5031315;28;20044;-47
2022/04/20 08:29:47;;;;;;;1.95;1.75;;;12.90;71.50;;;;;;5031250;28;20398;-48
2022/04/20 08:32:16;;;;;;;4.63;2.10;;;13.00;69.90;;;;;;5030768;28;20034;-47
2022/04/20 08:34:42;;;;;;;5.45;1.75;;;13.00;69.00;;;;;;5030166;28;20099;-48
2022/04/20 08:37:08;;;;;;;3.67;1.98;;;13.00;69.20;;;;;;5030416;28;20226;-49
2022/04/20 08:39:33;;;;;;;5.40;2.08;;;13.00;69.90;;;;;;5030686;28;20037;-48
2022/04/20 08:42:00;;;;;;;4.17;1.83;;;13.10;70.40;;;;;;5030905;28;20038;-48
2022/04/20 08:44:27;;;;;;;4.97;1.65;;;13.10;68.80;;;;;;5039348;28;20283;-48
2022/04/20 08:46:55;;;;;;;8.75;2.65;;;13.20;68.90;;;;;;5049920;28;20146;-48
2022/04/20 08:49:21;;;;;;;6.13;1.40;;;13.30;69.40;;;;;;5049259;28;20556;-48
2022/04/20 08:54:34;;;;;;;6.15;2.55;;;13.40;68.40;;;;;;5050317;28;20084;-48
2022/04/20 08:57:20;;;;;;;6.45;1.50;;;13.50;68.60;;;;;;5050511;28;20068;-48
2022/04/20 08:59:49;;;;;;;2.22;1.58;;;13.50;68.40;;;;;;5049266;28;20079;-49
2022/04/20 09:02:16;;;;;;;2.72;1.45;;;13.60;67.70;;;;;;5049941;28;20071;-48
2022/04/20 09:04:42;;;;;;;2.25;1.55;;;13.70;67.40;;;;;;5048292;28;20080;-47
2022/04/20 09:07:15;;;;;;;2.15;1.75;;;13.80;66.60;;;;;;5049647;28;20045;-48
2022/04/20 09:09:41;;;;;;;4.90;1.77;;;13.90;64.80;;;;;;5050196;28;20471;-48
2022/04/20 09:12:26;;;;;;;;;;;14.00;65.10;;;;;;5050034;28;20497;-48
2022/04/20 09:14:53;;;;;;;2.88;1.00;;;14.00;64.50;;;;;;5049551;28;20465;-48
2022/04/20 09:17:23;;;;;;;2.60;1.00;;;14.10;65.40;;;;;;5050107;28;20418;-48
2022/04/20 09:19:54;;;;;;;3.28;1.20;;;14.10;63.80;;;;;;5050071;28;20112;-48
2022/04/20 09:22:21;;;;;;;4.55;1.50;;;14.20;64.10;;;;;;5049973;28;20448;-48
2022/04/20 09:25:06;;;;;;;2.85;1.27;;;14.30;62.10;;;;;;5048290;28;20467;-48
2022/04/20 09:27:33;;;;;;;1.55;0.82;;;14.40;62.30;;;;;;5050220;28;20036;-48
2022/04/20 09:29:59;;;;;;;1.80;0.77;;;14.50;60.90;;;;;;5049799;28;20509;-49
2022/04/20 09:32:33;;;;;;;3.22;1.58;;;14.60;61.50;;;;;;5050015;28;20182;-48
2022/04/20 09:34:59;;;;;;;2.05;1.00;;;14.50;60.20;;;;;;5048855;28;20041;-48
2022/04/20 09:37:26;;;;;;;2.47;0.90;;;14.60;62.00;;;;;;5049985;28;20041;-48
2022/04/20 09:39:51;;;;;;;1.60;0.70;;;14.60;60.00;;;;;;5048474;28;20041;-49
2022/04/20 09:42:18;;;;;;;5.03;1.60;;;14.70;58.10;;;;;;5049629;28;20060;-49
2022/04/20 09:45:01;;;;;;;2.38;0.77;;;14.60;58.50;;;;;;5049191;28;20033;-48
2022/04/20 09:50:22;;;;;;;1.50;0.60;;;14.80;57.80;;;;;;5049890;28;20053;-48
2022/04/20 09:52:49;;;;;;;2.88;0.65;;;14.80;57.50;;;;;;5049676;28;20037;-48
2022/04/20 09:55:36;;;;;;;4.00;0.73;;;14.90;58.10;;;;;;5048964;28;20037;-48
2022/04/20 09:58:20;;;;;;;1.40;1.00;;;15.00;57.00;;;;;;5049084;28;20529;-48
2022/04/20 10:00:51;;;;;;;2.42;0.52;;;15.10;57.50;;;;;;5050169;28;20041;-48
2022/04/20 10:03:27;;;;;;;1.90;0.60;;;15.10;58.60;;;;;;5049555;28;20055;-48
2022/04/20 10:05:53;;;;;;;4.67;0.50;;;15.20;56.70;;;;;;5049023;28;20510;-48
2022/04/20 10:08:20;;;;;;;2.45;0.50;;;15.20;54.50;;;;;;5049018;28;20347;-49
2022/04/20 10:10:50;;;;;;;2.30;0.80;;;15.20;56.90;;;;;;5049737;28;20456;-48
2022/04/20 10:13:16;;;;;;;3.92;0.60;;;15.30;54.80;;;;;;5048069;28;20076;-49
2022/04/20 10:18:30;;;;;;;3.63;0.43;;;15.40;55.90;;;;;;5049353;28;20049;-48
2022/04/20 10:20:58;;;;;;;1.23;0.43;;;15.50;56.00;;;;;;5049048;28;20083;-49
2022/04/20 10:23:25;;;;;;;1.08;0.70;;;15.50;55.80;;;;;;5048123;28;20040;-48
2022/04/20 10:25:51;;;;;;;;;;;15.60;56.70;;;;;;5049143;28;20053;-49
2022/04/20 10:28:29;;;;;;;0.82;0.57;;;15.70;56.60;;;;;;5049315;28;19923;-49
2022/04/20 10:31:15;;;;;;;3.08;0.70;;;15.90;58.30;;;;;;5049463;28;20451;-48
2022/04/20 10:33:42;;;;;;;0.60;0.40;;;16.00;58.30;;;;;;5049756;28;20071;-48
2022/04/20 10:36:11;;;;;;;2.45;0.80;;;16.10;56.10;;;;;;5048633;28;20124;-48
2022/04/20 10:38:38;;;;;;;5.97;0.43;;;16.20;56.70;;;;;;5049136;28;20131;-48
2022/04/20 10:41:11;;;;;;;0.80;0.50;;;16.30;57.70;;;;;;5049754;28;20033;-48
2022/04/20 10:43:39;;;;;;;0.80;0.63;;;16.40;55.40;;;;;;5053025;28;20062;-49
2022/04/20 10:46:17;;;;;;;1.15;0.45;;;16.40;55.40;;;;;;5052462;28;20051;-48
2022/04/20 10:48:58;;;;;;;2.15;0.50;;;16.40;54.80;;;;;;5052937;28;20045;-48
2022/04/20 10:51:35;;;;;;;3.40;0.60;;;16.50;55.00;;;;;;5052732;28;20379;-48
2022/04/20 10:54:27;;;;;;;0.82;0.50;;;16.60;54.50;;;;;;5053527;28;20099;-48
2022/04/20 10:57:02;;;;;;;1.98;0.50;;;16.60;54.30;;;;;;5052462;28;20040;-48
2022/04/20 10:59:28;;;;;;;8.68;0.70;;;16.70;54.80;;;;;;5051673;28;20045;-48
2022/04/20 11:01:53;;;;;;;;;;;16.60;53.20;;;;;;5053123;28;20041;-49
2022/04/20 11:04:39;;;;;;;1.23;0.47;;;16.60;54.30;;;;;;5053124;28;20027;-49
2022/04/20 11:07:06;;;;;;;1.02;0.50;;;16.60;55.10;;;;;;5052403;28;20037;-49
2022/04/20 11:09:48;;;;;;;3.45;0.60;;;16.70;54.50;;;;;;5052540;28;20045;-48
2022/04/20 11:21:04;;;;;;;3.00;0.50;;;17.00;55.00;;;;;;5052538;28;20045;-48
2022/04/20 11:24:08;;;;;;;2.35;0.80;;;17.10;56.90;;;;;;5052034;28;20041;-48
2022/04/20 11:26:59;;;;;;;2.90;0.80;;;17.20;55.20;;;;;;5051698;28;20053;-47
2022/04/20 11:29:26;;;;;;;1.85;0.63;;;17.30;54.40;;;;;;5049119;28;20045;-47
2022/04/20 11:31:59;;;;;;;2.38;0.82;;;17.40;55.90;;;;;;5051734;28;20037;-49
2022/04/20 11:34:27;;;;;;;4.00;0.60;;;17.40;53.40;;;;;;5051916;28;20131;-49
2022/04/20 11:36:57;;;;;;;2.00;0.70;;;17.40;53.10;;;;;;5051312;28;20044;-49
2022/04/20 11:39:25;;;;;;;3.08;0.70;;;17.40;54.00;;;;;;5052072;28;20147;-48
2022/04/20 11:41:52;;;;;;;1.48;0.70;;;17.40;54.80;;;;;;5051212;28;20539;-48
2022/04/20 11:44:25;;;;;;;1.42;0.70;;;17.40;53.40;;;;;;5052061;28;20043;-48
2022/04/20 11:46:53;;;;;;;5.05;1.25;;;17.40;53.30;;;;;;5050451;28;20041;-47
2022/04/20 11:49:20;;;;;;;3.08;0.93;;;17.40;53.50;;;;;;5051693;28;20032;-48
2022/04/20 11:51:54;;;;;;;1.92;0.60;;;17.50;53.40;;;;;;5051646;28;20418;-49
2022/04/20 11:54:21;;;;;;;3.60;1.10;;;17.30;54.00;;;;;;5051694;28;20516;-48
2022/04/20 11:56:47;;;;;;;2.08;0.70;;;17.30;53.20;;;;;;5050904;28;20136;-49
2022/04/20 11:59:12;;;;;;;5.03;1.10;;;17.40;55.80;;;;;;5051653;28;20120;-49
2022/04/20 12:01:39;;;;;;;1.52;0.77;;;17.50;55.00;;;;;;5051005;28;20040;-48
2022/04/20 12:04:18;;;;;;;5.15;0.90;;;17.60;53.70;;;;;;5051598;28;20083;-49
2022/04/20 12:06:59;;;;;;;2.60;1.27;;;17.70;53.30;;;;;;5049881;28;20379;-48
2022/04/20 12:09:28;;;;;;;2.75;1.05;;;17.70;52.80;;;;;;5051106;28;20049;-49
2022/04/20 12:11:56;;;;;;;4.20;0.88;;;17.80;54.70;;;;;;5050733;28;20045;-48
2022/04/20 12:14:25;;;;;;;2.60;0.80;;;17.90;55.10;;;;;;5051211;28;20524;-49
2022/04/20 12:16:52;;;;;;;7.05;1.30;;;18.00;53.60;;;;;;5049384;28;20499;-48
2022/04/20 12:19:19;;;;;;;3.47;1.00;;;18.00;54.80;;;;;;5050996;28;20391;-49
2022/04/20 12:21:46;;;;;;;1.30;0.90;;;18.10;54.30;;;;;;5049334;28;20041;-48
2022/04/20 12:24:21;;;;;;;2.55;1.40;;;18.20;54.60;;;;;;5051172;28;20544;-49
2022/04/20 12:26:49;;;;;;;1.77;0.98;;;18.30;53.50;;;;;;5050827;28;20185;-49
2022/04/20 12:29:19;;;;;;;1.50;1.10;;;18.30;54.60;;;;;;5051112;28;20135;-49
2022/04/20 12:31:46;;;;;;;3.38;1.10;;;18.40;53.70;;;;;;5050970;28;20409;-49
2022/04/20 12:34:15;;;;;;;4.90;0.93;;;18.40;52.80;;;;;;5051345;28;20044;-49
2022/04/20 12:36:59;;;;;;;3.20;1.20;;;18.40;54.20;;;;;;5050970;28;20045;-49
2022/04/20 12:39:45;;;;;;;2.28;0.90;;;18.50;54.70;;;;;;5050662;28;20040;-49
2022/04/20 12:42:17;;;;;;;6.78;1.30;;;18.50;52.10;;;;;;5050753;28;20045;-49
2022/04/20 12:44:54;;;;;;;2.13;1.23;;;18.60;54.10;;;;;;5049007;28;20033;-48
2022/04/20 12:47:20;;;;;;;;;;;18.50;53.30;;;;;;5050697;28;20049;-49
2022/04/20 12:49:53;;;;;;;4.30;1.83;;;18.30;52.00;;;;;;5050720;28;20443;-49
2022/04/20 12:52:20;;;;;;;2.22;1.67;;;18.20;54.00;;;;;;5050638;28;20045;-49
2022/04/20 12:55:05;;;;;;;4.35;1.65;;;18.20;53.20;;;;;;5050023;28;20041;-49
2022/04/20 13:03:15;;;;;;;3.45;1.55;;;18.10;54.80;;;;;;5050686;28;20049;-49
2022/04/20 13:05:42;;;;;;;5.32;1.67;;;18.20;54.30;;;;;;5049282;28;20049;-48
2022/04/20 13:08:12;;;;;;;2.78;2.00;;;18.30;54.40;;;;;;5049616;28;20099;-49
2022/04/20 13:10:43;;;;;;;5.43;2.30;;;18.30;53.80;;;;;;5050224;28;20045;-49
2022/04/20 13:13:10;;;;;;;5.50;2.22;;;18.30;54.50;;;;;;5050261;28;20127;-49
2022/04/20 13:15:35;;;;;;;2.65;1.80;;;18.30;54.40;;;;;;5049725;28;20390;-49
2022/04/20 13:18:02;;;;;;;3.00;2.03;;;18.30;54.70;;;;;;5049977;28;20051;-49
2022/04/20 13:20:29;;;;;;;5.18;1.70;;;18.30;55.30;;;;;;5050206;28;20115;-49
2022/04/20 13:22:55;;;;;;;5.72;2.40;;;18.40;54.90;;;;;;5048565;28;20041;-49
2022/04/20 13:28:06;;;;;;;2.22;2.03;;;18.40;54.70;;;;;;5050001;28;20076;-49
2022/04/20 13:30:36;;;;;;;3.47;2.17;;;18.50;54.60;;;;;;5049996;28;20445;-49
2022/04/20 13:33:04;;;;;;;4.28;1.92;;;18.50;54.60;;;;;;5050151;28;20082;-48
2022/04/20 13:35:29;;;;;;;7.78;2.03;;;18.60;54.90;;;;;;5047966;28;20048;-49
2022/04/20 13:37:55;;;;;;;3.28;2.17;;;18.60;55.60;;;;;;5049563;28;20040;-50